sensor_id;sensor_type;location;lat;lon;timestamp;P1;durP1;ratioP1;P2;durP2;ratioP2
21036;SDS011;10677;50.942;4.028;2022-08-04T00:00:25;6.40;;;3.08;;
21036;SDS011;10677;50.942;4.028;2022-08-04T00:05:59;9.93;;;3.05;;
21036;SDS011;10677;50.942;4.028;2022-08-04T00:08:45;8.13;;;3.08;;
21036;SDS011;10677;50.942;4.028;2022-08-04T00:11:15;6.45;;;3.00;;
21036;SDS011;10677;50.942;4.028;2022-08-04T00:13:48;10.13;;;3.65;;
21036;SDS011;10677;50.942;4.028;2022-08-04T00:16:21;12.02;;;3.92;;
21036;SDS011;10677;50.942;4.028;2022-08-04T00:18:55;10.30;;;3.70;;
21036;SDS011;10677;50.942;4.028;2022-08-04T00:21:25;10.27;;;3.38;;
21036;SDS011;10677;50.942;4.028;2022-08-04T00:23:53;11.88;;;4.13;;
21036;SDS011;10677;50.942;4.028;2022-08-04T00:26:20;7.60;;;3.25;;
21036;SDS011;10677;50.942;4.028;2022-08-04T00:28:46;8.55;;;3.13;;
21036;SDS011;10677;50.942;4.028;2022-08-04T00:31:13;11.00;;;3.20;;
21036;SDS011;10677;50.942;4.028;2022-08-04T00:33:43;9.20;;;3.10;;
21036;SDS011;10677;50.942;4.028;2022-08-04T00:36:10;4.88;;;2.83;;
21036;SDS011;10677;50.942;4.028;2022-08-04T00:38:38;6.45;;;2.28;;
21036;SDS011;10677;50.942;4.028;2022-08-04T00:49:52;10.23;;;3.30;;
21036;SDS011;10677;50.942;4.028;2022-08-04T01:06:11;9.77;;;3.65;;
21036;SDS011;10677;50.942;4.028;2022-08-04T01:16:52;11.15;;;4.07;;
21036;SDS011;10677;50.942;4.028;2022-08-04T01:19:40;13.70;;;3.92;;
21036;SDS011;10677;50.942;4.028;2022-08-04T01:30:34;7.20;;;3.67;;
21036;SDS011;10677;50.942;4.028;2022-08-04T01:33:02;13.15;;;4.20;;
21036;SDS011;10677;50.942;4.028;2022-08-04T01:38:20;8.85;;;4.35;;
21036;SDS011;10677;50.942;4.028;2022-08-04T01:40:52;11.38;;;4.40;;
21036;SDS011;10677;50.942;4.028;2022-08-04T01:43:21;7.10;;;4.20;;
21036;SDS011;10677;50.942;4.028;2022-08-04T01:45:49;9.90;;;4.45;;
21036;SDS011;10677;50.942;4.028;2022-08-04T01:48:17;9.60;;;4.78;;
21036;SDS011;10677;50.942;4.028;2022-08-04T01:50:48;12.20;;;5.05;;
21036;SDS011;10677;50.942;4.028;2022-08-04T01:53:17;14.10;;;4.35;;
21036;SDS011;10677;50.942;4.028;2022-08-04T01:55:45;9.35;;;4.55;;
21036;SDS011;10677;50.942;4.028;2022-08-04T01:58:14;9.77;;;4.30;;
21036;SDS011;10677;50.942;4.028;2022-08-04T02:00:48;12.05;;;3.58;;
21036;SDS011;10677;50.942;4.028;2022-08-04T02:03:26;8.80;;;3.00;;
21036;SDS011;10677;50.942;4.028;2022-08-04T02:05:55;8.98;;;3.10;;
21036;SDS011;10677;50.942;4.028;2022-08-04T02:08:37;9.75;;;2.97;;
21036;SDS011;10677;50.942;4.028;2022-08-04T02:19:28;8.25;;;2.63;;
21036;SDS011;10677;50.942;4.028;2022-08-04T02:22:02;7.78;;;2.92;;
21036;SDS011;10677;50.942;4.028;2022-08-04T02:24:35;5.90;;;2.60;;
21036;SDS011;10677;50.942;4.028;2022-08-04T02:27:09;6.38;;;3.10;;
21036;SDS011;10677;50.942;4.028;2022-08-04T02:29:46;9.15;;;2.35;;
21036;SDS011;10677;50.942;4.028;2022-08-04T02:32:24;7.38;;;2.80;;
21036;SDS011;10677;50.942;4.028;2022-08-04T02:40:49;8.00;;;3.33;;
21036;SDS011;10677;50.942;4.028;2022-08-04T02:43:18;5.55;;;2.78;;
21036;SDS011;10677;50.942;4.028;2022-08-04T02:45:44;7.65;;;2.90;;
21036;SDS011;10677;50.942;4.028;2022-08-04T02:48:11;9.75;;;3.15;;
21036;SDS011;10677;50.942;4.028;2022-08-04T02:50:40;9.50;;;3.28;;
21036;SDS011;10677;50.942;4.028;2022-08-04T02:53:08;10.45;;;3.10;;
21036;SDS011;10677;50.942;4.028;2022-08-04T02:55:39;8.10;;;2.70;;
21036;SDS011;10677;50.942;4.028;2022-08-04T02:58:08;8.75;;;3.20;;
21036;SDS011;10677;50.942;4.028;2022-08-04T03:00:36;8.18;;;3.10;;
21036;SDS011;10677;50.942;4.028;2022-08-04T03:18:08;11.18;;;2.90;;
21036;SDS011;10677;50.942;4.028;2022-08-04T03:46:42;7.32;;;3.00;;
21036;SDS011;10677;50.942;4.028;2022-08-04T04:00:17;8.18;;;3.42;;
21036;SDS011;10677;50.942;4.028;2022-08-04T04:13:48;7.30;;;3.40;;
21036;SDS011;10677;50.942;4.028;2022-08-04T04:16:43;11.98;;;3.38;;
21036;SDS011;10677;50.942;4.028;2022-08-04T04:30:53;7.72;;;3.10;;
21036;SDS011;10677;50.942;4.028;2022-08-04T04:33:52;9.40;;;3.42;;
21036;SDS011;10677;50.942;4.028;2022-08-04T04:39:24;7.68;;;3.25;;
21036;SDS011;10677;50.942;4.028;2022-08-04T04:53:23;9.70;;;3.78;;
21036;SDS011;10677;50.942;4.028;2022-08-04T04:58:52;9.32;;;3.45;;
21036;SDS011;10677;50.942;4.028;2022-08-04T05:01:41;9.43;;;3.20;;
21036;SDS011;10677;50.942;4.028;2022-08-04T05:12:24;9.75;;;3.13;;
21036;SDS011;10677;50.942;4.028;2022-08-04T05:15:09;8.40;;;3.38;;
21036;SDS011;10677;50.942;4.028;2022-08-04T05:17:41;9.88;;;3.25;;
21036;SDS011;10677;50.942;4.028;2022-08-04T05:20:21;5.90;;;2.50;;
21036;SDS011;10677;50.942;4.028;2022-08-04T05:22:54;7.85;;;3.08;;
21036;SDS011;10677;50.942;4.028;2022-08-04T05:25:24;12.65;;;3.42;;
21036;SDS011;10677;50.942;4.028;2022-08-04T05:28:02;9.05;;;3.38;;
21036;SDS011;10677;50.942;4.028;2022-08-04T05:30:34;10.05;;;3.17;;
21036;SDS011;10677;50.942;4.028;2022-08-04T05:33:12;8.90;;;3.15;;
21036;SDS011;10677;50.942;4.028;2022-08-04T05:35:54;9.05;;;3.95;;
21036;SDS011;10677;50.942;4.028;2022-08-04T05:38:26;7.57;;;3.08;;
21036;SDS011;10677;50.942;4.028;2022-08-04T05:40:55;9.20;;;3.28;;
21036;SDS011;10677;50.942;4.028;2022-08-04T05:43:21;8.43;;;3.30;;
21036;SDS011;10677;50.942;4.028;2022-08-04T05:45:48;9.77;;;3.75;;
21036;SDS011;10677;50.942;4.028;2022-08-04T05:48:15;11.38;;;3.28;;
21036;SDS011;10677;50.942;4.028;2022-08-04T05:50:42;6.35;;;3.15;;
21036;SDS011;10677;50.942;4.028;2022-08-04T05:53:10;12.35;;;3.63;;
21036;SDS011;10677;50.942;4.028;2022-08-04T05:55:37;10.02;;;3.47;;
21036;SDS011;10677;50.942;4.028;2022-08-04T05:58:03;10.13;;;3.42;;
21036;SDS011;10677;50.942;4.028;2022-08-04T06:00:29;9.18;;;3.45;;
21036;SDS011;10677;50.942;4.028;2022-08-04T06:02:55;8.55;;;3.70;;
21036;SDS011;10677;50.942;4.028;2022-08-04T06:05:23;12.63;;;3.75;;
21036;SDS011;10677;50.942;4.028;2022-08-04T06:07:49;12.60;;;4.43;;
21036;SDS011;10677;50.942;4.028;2022-08-04T06:10:15;17.88;;;4.72;;
21036;SDS011;10677;50.942;4.028;2022-08-04T06:13:16;11.98;;;4.63;;
21036;SDS011;10677;50.942;4.028;2022-08-04T06:15:37;10.75;;;3.90;;
21036;SDS011;10677;50.942;4.028;2022-08-04T06:18:07;10.02;;;3.95;;
21036;SDS011;10677;50.942;4.028;2022-08-04T06:20:35;9.57;;;3.80;;
21036;SDS011;10677;50.942;4.028;2022-08-04T06:23:06;13.25;;;4.18;;
21036;SDS011;10677;50.942;4.028;2022-08-04T06:25:38;7.63;;;3.95;;
21036;SDS011;10677;50.942;4.028;2022-08-04T06:28:08;8.98;;;4.10;;
21036;SDS011;10677;50.942;4.028;2022-08-04T06:30:35;9.15;;;4.72;;
21036;SDS011;10677;50.942;4.028;2022-08-04T06:33:02;12.30;;;4.65;;
21036;SDS011;10677;50.942;4.028;2022-08-04T06:35:37;12.05;;;5.15;;
21036;SDS011;10677;50.942;4.028;2022-08-04T06:38:04;15.88;;;5.80;;
21036;SDS011;10677;50.942;4.028;2022-08-04T06:40:32;11.88;;;5.78;;
21036;SDS011;10677;50.942;4.028;2022-08-04T06:43:00;18.05;;;9.00;;
21036;SDS011;10677;50.942;4.028;2022-08-04T06:45:27;20.05;;;11.20;;
21036;SDS011;10677;50.942;4.028;2022-08-04T06:47:55;20.70;;;12.82;;
21036;SDS011;10677;50.942;4.028;2022-08-04T06:50:21;24.35;;;13.05;;
21036;SDS011;10677;50.942;4.028;2022-08-04T06:52:48;23.10;;;12.95;;
21036;SDS011;10677;50.942;4.028;2022-08-04T06:55:14;20.33;;;10.45;;
21036;SDS011;10677;50.942;4.028;2022-08-04T06:57:40;18.25;;;10.68;;
21036;SDS011;10677;50.942;4.028;2022-08-04T07:00:07;22.48;;;12.70;;
21036;SDS011;10677;50.942;4.028;2022-08-04T07:02:50;23.98;;;13.13;;
21036;SDS011;10677;50.942;4.028;2022-08-04T07:05:17;21.88;;;12.15;;
21036;SDS011;10677;50.942;4.028;2022-08-04T07:07:44;24.00;;;12.05;;
21036;SDS011;10677;50.942;4.028;2022-08-04T07:10:10;23.35;;;12.65;;
21036;SDS011;10677;50.942;4.028;2022-08-04T07:12:36;15.57;;;8.20;;
21036;SDS011;10677;50.942;4.028;2022-08-04T07:15:04;17.77;;;11.05;;
21036;SDS011;10677;50.942;4.028;2022-08-04T07:17:31;22.02;;;12.80;;
21036;SDS011;10677;50.942;4.028;2022-08-04T07:20:01;27.77;;;16.10;;
21036;SDS011;10677;50.942;4.028;2022-08-04T07:22:28;33.85;;;22.17;;
21036;SDS011;10677;50.942;4.028;2022-08-04T07:24:54;43.80;;;25.45;;
21036;SDS011;10677;50.942;4.028;2022-08-04T07:27:22;35.15;;;24.08;;
21036;SDS011;10677;50.942;4.028;2022-08-04T07:29:48;43.50;;;26.80;;
21036;SDS011;10677;50.942;4.028;2022-08-04T07:32:15;44.75;;;27.52;;
21036;SDS011;10677;50.942;4.028;2022-08-04T07:34:42;41.17;;;26.77;;
21036;SDS011;10677;50.942;4.028;2022-08-04T07:37:08;40.53;;;25.95;;
21036;SDS011;10677;50.942;4.028;2022-08-04T07:39:34;39.67;;;24.45;;
21036;SDS011;10677;50.942;4.028;2022-08-04T07:42:01;37.83;;;25.20;;
21036;SDS011;10677;50.942;4.028;2022-08-04T07:44:31;40.30;;;27.17;;
21036;SDS011;10677;50.942;4.028;2022-08-04T07:46:59;42.25;;;25.95;;
21036;SDS011;10677;50.942;4.028;2022-08-04T07:49:29;40.25;;;25.38;;
21036;SDS011;10677;50.942;4.028;2022-08-04T07:51:55;32.80;;;24.33;;
21036;SDS011;10677;50.942;4.028;2022-08-04T07:54:21;36.00;;;24.00;;
21036;SDS011;10677;50.942;4.028;2022-08-04T07:56:47;35.80;;;23.63;;
21036;SDS011;10677;50.942;4.028;2022-08-04T07:59:15;33.33;;;21.90;;
21036;SDS011;10677;50.942;4.028;2022-08-04T08:01:41;35.72;;;22.67;;
21036;SDS011;10677;50.942;4.028;2022-08-04T08:04:08;30.92;;;21.17;;
21036;SDS011;10677;50.942;4.028;2022-08-04T08:06:36;31.13;;;20.95;;
21036;SDS011;10677;50.942;4.028;2022-08-04T08:09:08;34.58;;;21.15;;
21036;SDS011;10677;50.942;4.028;2022-08-04T08:11:37;30.23;;;20.10;;
21036;SDS011;10677;50.942;4.028;2022-08-04T08:14:03;31.77;;;20.10;;
21036;SDS011;10677;50.942;4.028;2022-08-04T08:16:29;29.42;;;19.88;;
21036;SDS011;10677;50.942;4.028;2022-08-04T08:18:57;31.58;;;19.23;;
21036;SDS011;10677;50.942;4.028;2022-08-04T08:21:24;29.67;;;19.30;;
21036;SDS011;10677;50.942;4.028;2022-08-04T08:23:50;31.75;;;19.13;;
21036;SDS011;10677;50.942;4.028;2022-08-04T08:26:16;31.55;;;20.00;;
21036;SDS011;10677;50.942;4.028;2022-08-04T08:28:42;33.70;;;20.15;;
21036;SDS011;10677;50.942;4.028;2022-08-04T08:31:09;35.58;;;20.60;;
21036;SDS011;10677;50.942;4.028;2022-08-04T08:33:34;32.97;;;19.65;;
21036;SDS011;10677;50.942;4.028;2022-08-04T08:39:25;34.30;;;19.70;;
21036;SDS011;10677;50.942;4.028;2022-08-04T08:50:21;32.28;;;18.73;;
21036;SDS011;10677;50.942;4.028;2022-08-04T08:53:17;29.25;;;18.38;;
21036;SDS011;10677;50.942;4.028;2022-08-04T09:06:30;33.08;;;18.55;;
21036;SDS011;10677;50.942;4.028;2022-08-04T09:09:21;29.63;;;19.67;;
21036;SDS011;10677;50.942;4.028;2022-08-04T09:12:17;30.50;;;18.95;;
21036;SDS011;10677;50.942;4.028;2022-08-04T09:25:40;22.85;;;16.17;;
21036;SDS011;10677;50.942;4.028;2022-08-04T09:28:55;26.38;;;17.08;;
21036;SDS011;10677;50.942;4.028;2022-08-04T09:40:20;21.20;;;14.55;;
21036;SDS011;10677;50.942;4.028;2022-08-04T09:46:09;20.98;;;14.10;;
21036;SDS011;10677;50.942;4.028;2022-08-04T09:48:49;25.58;;;14.90;;
21036;SDS011;10677;50.942;4.028;2022-08-04T10:00:13;23.83;;;13.88;;
21036;SDS011;10677;50.942;4.028;2022-08-04T10:03:06;16.85;;;13.90;;
21036;SDS011;10677;50.942;4.028;2022-08-04T10:19:28;15.65;;;12.00;;
21036;SDS011;10677;50.942;4.028;2022-08-04T10:27:44;16.00;;;11.05;;
21036;SDS011;10677;50.942;4.028;2022-08-04T10:30:17;13.48;;;11.23;;
21036;SDS011;10677;50.942;4.028;2022-08-04T10:35:32;18.05;;;11.43;;
21036;SDS011;10677;50.942;4.028;2022-08-04T10:40:32;17.20;;;11.43;;
21036;SDS011;10677;50.942;4.028;2022-08-04T10:45:57;16.15;;;10.82;;
21036;SDS011;10677;50.942;4.028;2022-08-04T10:54:11;14.57;;;10.20;;
21036;SDS011;10677;50.942;4.028;2022-08-04T10:57:06;14.07;;;10.13;;
21036;SDS011;10677;50.942;4.028;2022-08-04T10:59:38;12.85;;;9.07;;
21036;SDS011;10677;50.942;4.028;2022-08-04T11:05:16;13.82;;;9.48;;
21036;SDS011;10677;50.942;4.028;2022-08-04T11:07:49;12.52;;;9.30;;
21036;SDS011;10677;50.942;4.028;2022-08-04T11:10:20;13.10;;;9.77;;
21036;SDS011;10677;50.942;4.028;2022-08-04T11:12:51;14.48;;;7.25;;
21036;SDS011;10677;50.942;4.028;2022-08-04T11:15:22;14.07;;;7.63;;
21036;SDS011;10677;50.942;4.028;2022-08-04T11:17:52;12.10;;;8.07;;
21036;SDS011;10677;50.942;4.028;2022-08-04T11:20:50;14.27;;;8.63;;
21036;SDS011;10677;50.942;4.028;2022-08-04T11:23:22;13.95;;;8.88;;
21036;SDS011;10677;50.942;4.028;2022-08-04T11:31:42;12.38;;;8.48;;
21036;SDS011;10677;50.942;4.028;2022-08-04T11:36:51;13.43;;;8.32;;
21036;SDS011;10677;50.942;4.028;2022-08-04T11:39:26;13.60;;;8.18;;
21036;SDS011;10677;50.942;4.028;2022-08-04T11:42:14;14.00;;;7.47;;
21036;SDS011;10677;50.942;4.028;2022-08-04T11:50:49;12.45;;;8.13;;
21036;SDS011;10677;50.942;4.028;2022-08-04T11:53:18;10.88;;;7.25;;
21036;SDS011;10677;50.942;4.028;2022-08-04T11:55:48;13.98;;;7.45;;
21036;SDS011;10677;50.942;4.028;2022-08-04T11:58:16;15.27;;;7.90;;
21036;SDS011;10677;50.942;4.028;2022-08-04T12:00:45;14.50;;;7.47;;
21036;SDS011;10677;50.942;4.028;2022-08-04T12:11:45;10.48;;;6.75;;
21036;SDS011;10677;50.942;4.028;2022-08-04T12:17:12;12.88;;;7.50;;
21036;SDS011;10677;50.942;4.028;2022-08-04T12:19:49;16.52;;;7.10;;
21036;SDS011;10677;50.942;4.028;2022-08-04T12:22:21;9.57;;;6.07;;
21036;SDS011;10677;50.942;4.028;2022-08-04T12:24:49;11.45;;;6.70;;
21036;SDS011;10677;50.942;4.028;2022-08-04T12:27:22;10.85;;;6.90;;
21036;SDS011;10677;50.942;4.028;2022-08-04T12:29:54;14.38;;;8.20;;
21036;SDS011;10677;50.942;4.028;2022-08-04T12:35:12;8.93;;;5.85;;
21036;SDS011;10677;50.942;4.028;2022-08-04T12:37:47;10.38;;;6.38;;
21036;SDS011;10677;50.942;4.028;2022-08-04T12:40:24;11.40;;;7.43;;
21036;SDS011;10677;50.942;4.028;2022-08-04T12:43:02;15.10;;;7.32;;
21036;SDS011;10677;50.942;4.028;2022-08-04T12:45:34;10.02;;;5.22;;
21036;SDS011;10677;50.942;4.028;2022-08-04T12:48:00;15.20;;;5.70;;
21036;SDS011;10677;50.942;4.028;2022-08-04T12:50:30;9.82;;;5.32;;
21036;SDS011;10677;50.942;4.028;2022-08-04T12:52:56;8.07;;;4.13;;
21036;SDS011;10677;50.942;4.028;2022-08-04T12:55:24;10.32;;;5.45;;
21036;SDS011;10677;50.942;4.028;2022-08-04T12:57:53;7.72;;;4.10;;
21036;SDS011;10677;50.942;4.028;2022-08-04T13:00:23;10.02;;;4.50;;
21036;SDS011;10677;50.942;4.028;2022-08-04T13:02:51;9.00;;;4.65;;
21036;SDS011;10677;50.942;4.028;2022-08-04T13:05:23;6.70;;;3.97;;
21036;SDS011;10677;50.942;4.028;2022-08-04T13:07:51;11.52;;;3.83;;
21036;SDS011;10677;50.942;4.028;2022-08-04T13:10:18;9.65;;;3.40;;
21036;SDS011;10677;50.942;4.028;2022-08-04T13:12:51;5.82;;;3.20;;
21036;SDS011;10677;50.942;4.028;2022-08-04T13:15:22;5.85;;;3.13;;
21036;SDS011;10677;50.942;4.028;2022-08-04T13:17:56;12.05;;;4.93;;
21036;SDS011;10677;50.942;4.028;2022-08-04T13:20:27;9.15;;;5.20;;
21036;SDS011;10677;50.942;4.028;2022-08-04T13:22:59;7.80;;;3.72;;
21036;SDS011;10677;50.942;4.028;2022-08-04T13:25:33;9.45;;;4.40;;
21036;SDS011;10677;50.942;4.028;2022-08-04T13:28:04;10.95;;;5.47;;
21036;SDS011;10677;50.942;4.028;2022-08-04T13:30:36;9.05;;;4.85;;
21036;SDS011;10677;50.942;4.028;2022-08-04T13:33:02;7.32;;;3.90;;
21036;SDS011;10677;50.942;4.028;2022-08-04T13:35:29;8.60;;;3.70;;
21036;SDS011;10677;50.942;4.028;2022-08-04T13:37:56;7.25;;;3.53;;
21036;SDS011;10677;50.942;4.028;2022-08-04T13:40:26;5.68;;;3.03;;
21036;SDS011;10677;50.942;4.028;2022-08-04T13:42:52;6.05;;;2.78;;
21036;SDS011;10677;50.942;4.028;2022-08-04T13:45:23;6.63;;;2.35;;
21036;SDS011;10677;50.942;4.028;2022-08-04T13:47:50;5.65;;;2.20;;
21036;SDS011;10677;50.942;4.028;2022-08-04T13:52:53;9.82;;;2.00;;
21036;SDS011;10677;50.942;4.028;2022-08-04T13:55:27;3.60;;;1.63;;
21036;SDS011;10677;50.942;4.028;2022-08-04T13:58:01;5.75;;;2.05;;
21036;SDS011;10677;50.942;4.028;2022-08-04T14:03:14;5.07;;;1.70;;
21036;SDS011;10677;50.942;4.028;2022-08-04T14:06:03;4.43;;;1.70;;
21036;SDS011;10677;50.942;4.028;2022-08-04T14:08:47;4.72;;;1.63;;
21036;SDS011;10677;50.942;4.028;2022-08-04T14:11:28;6.50;;;1.63;;
21036;SDS011;10677;50.942;4.028;2022-08-04T14:13:55;3.55;;;1.35;;
21036;SDS011;10677;50.942;4.028;2022-08-04T14:16:21;6.68;;;2.10;;
21036;SDS011;10677;50.942;4.028;2022-08-04T14:18:47;5.72;;;2.50;;
21036;SDS011;10677;50.942;4.028;2022-08-04T14:21:22;5.93;;;2.35;;
21036;SDS011;10677;50.942;4.028;2022-08-04T14:23:48;5.95;;;1.65;;
21036;SDS011;10677;50.942;4.028;2022-08-04T14:28:48;5.45;;;2.20;;
21036;SDS011;10677;50.942;4.028;2022-08-04T14:31:18;5.93;;;2.10;;
21036;SDS011;10677;50.942;4.028;2022-08-04T14:33:46;3.38;;;1.52;;
21036;SDS011;10677;50.942;4.028;2022-08-04T14:36:13;6.28;;;1.65;;
21036;SDS011;10677;50.942;4.028;2022-08-04T14:38:50;3.92;;;1.40;;
21036;SDS011;10677;50.942;4.028;2022-08-04T14:41:20;6.43;;;1.88;;
21036;SDS011;10677;50.942;4.028;2022-08-04T14:46:34;7.90;;;2.05;;
21036;SDS011;10677;50.942;4.028;2022-08-04T14:49:17;8.82;;;3.72;;
21036;SDS011;10677;50.942;4.028;2022-08-04T14:51:44;7.95;;;3.33;;
21036;SDS011;10677;50.942;4.028;2022-08-04T14:54:24;6.88;;;2.30;;
21036;SDS011;10677;50.942;4.028;2022-08-04T14:56:56;7.90;;;1.83;;
21036;SDS011;10677;50.942;4.028;2022-08-04T14:59:25;7.28;;;2.00;;
21036;SDS011;10677;50.942;4.028;2022-08-04T15:01:52;7.00;;;2.15;;
21036;SDS011;10677;50.942;4.028;2022-08-04T15:04:22;6.18;;;2.15;;
21036;SDS011;10677;50.942;4.028;2022-08-04T15:06:49;5.78;;;2.85;;
21036;SDS011;10677;50.942;4.028;2022-08-04T15:09:15;7.60;;;2.20;;
21036;SDS011;10677;50.942;4.028;2022-08-04T15:11:41;8.30;;;1.90;;
21036;SDS011;10677;50.942;4.028;2022-08-04T15:14:07;8.60;;;1.88;;
21036;SDS011;10677;50.942;4.028;2022-08-04T15:16:33;7.55;;;2.70;;
21036;SDS011;10677;50.942;4.028;2022-08-04T15:18:59;5.40;;;2.35;;
21036;SDS011;10677;50.942;4.028;2022-08-04T15:21:25;4.38;;;2.25;;
21036;SDS011;10677;50.942;4.028;2022-08-04T15:23:53;4.78;;;2.38;;
21036;SDS011;10677;50.942;4.028;2022-08-04T15:29:19;7.00;;;2.35;;
21036;SDS011;10677;50.942;4.028;2022-08-04T15:31:51;8.43;;;2.50;;
21036;SDS011;10677;50.942;4.028;2022-08-04T15:34:17;9.13;;;2.72;;
21036;SDS011;10677;50.942;4.028;2022-08-04T15:36:51;5.20;;;1.88;;
21036;SDS011;10677;50.942;4.028;2022-08-04T15:50:29;6.95;;;2.17;;
21036;SDS011;10677;50.942;4.028;2022-08-04T15:52:59;6.63;;;1.80;;
21036;SDS011;10677;50.942;4.028;2022-08-04T15:57:55;5.93;;;2.00;;
21036;SDS011;10677;50.942;4.028;2022-08-04T16:00:25;6.72;;;1.92;;
21036;SDS011;10677;50.942;4.028;2022-08-04T16:02:52;6.93;;;2.20;;
21036;SDS011;10677;50.942;4.028;2022-08-04T16:12:57;5.70;;;1.75;;
21036;SDS011;10677;50.942;4.028;2022-08-04T16:15:38;3.25;;;1.52;;
21036;SDS011;10677;50.942;4.028;2022-08-04T16:18:08;3.67;;;1.73;;
21036;SDS011;10677;50.942;4.028;2022-08-04T16:20:35;3.90;;;1.73;;
21036;SDS011;10677;50.942;4.028;2022-08-04T16:23:08;5.00;;;1.70;;
21036;SDS011;10677;50.942;4.028;2022-08-04T16:26:03;4.85;;;1.70;;
21036;SDS011;10677;50.942;4.028;2022-08-04T16:31:05;5.20;;;1.80;;
21036;SDS011;10677;50.942;4.028;2022-08-04T16:33:36;4.28;;;1.98;;
21036;SDS011;10677;50.942;4.028;2022-08-04T16:36:04;3.35;;;1.75;;
21036;SDS011;10677;50.942;4.028;2022-08-04T16:38:31;6.20;;;1.75;;
21036;SDS011;10677;50.942;4.028;2022-08-04T16:41:36;5.25;;;2.17;;
21036;SDS011;10677;50.942;4.028;2022-08-04T16:44:27;5.68;;;1.80;;
21036;SDS011;10677;50.942;4.028;2022-08-04T16:46:58;3.63;;;1.50;;
21036;SDS011;10677;50.942;4.028;2022-08-04T16:49:25;3.85;;;1.38;;
21036;SDS011;10677;50.942;4.028;2022-08-04T16:51:51;5.53;;;1.70;;
21036;SDS011;10677;50.942;4.028;2022-08-04T16:54:19;4.60;;;1.38;;
21036;SDS011;10677;50.942;4.028;2022-08-04T16:56:46;4.45;;;1.70;;
21036;SDS011;10677;50.942;4.028;2022-08-04T16:59:12;3.80;;;1.30;;
21036;SDS011;10677;50.942;4.028;2022-08-04T17:01:43;5.35;;;1.75;;
21036;SDS011;10677;50.942;4.028;2022-08-04T17:04:13;6.20;;;1.95;;
21036;SDS011;10677;50.942;4.028;2022-08-04T17:06:40;8.40;;;2.10;;
21036;SDS011;10677;50.942;4.028;2022-08-04T17:09:17;6.07;;;2.10;;
21036;SDS011;10677;50.942;4.028;2022-08-04T17:11:45;5.57;;;1.70;;
21036;SDS011;10677;50.942;4.028;2022-08-04T17:14:11;5.63;;;1.80;;
21036;SDS011;10677;50.942;4.028;2022-08-04T17:16:39;4.05;;;2.28;;
21036;SDS011;10677;50.942;4.028;2022-08-04T17:19:06;5.78;;;2.17;;
21036;SDS011;10677;50.942;4.028;2022-08-04T17:21:33;6.70;;;2.58;;
21036;SDS011;10677;50.942;4.028;2022-08-04T17:24:01;4.68;;;2.40;;
21036;SDS011;10677;50.942;4.028;2022-08-04T17:26:29;6.63;;;2.25;;
21036;SDS011;10677;50.942;4.028;2022-08-04T17:28:56;3.53;;;1.83;;
21036;SDS011;10677;50.942;4.028;2022-08-04T17:31:24;6.88;;;2.30;;
21036;SDS011;10677;50.942;4.028;2022-08-04T17:33:51;7.18;;;2.85;;
21036;SDS011;10677;50.942;4.028;2022-08-04T17:36:22;4.25;;;2.28;;
21036;SDS011;10677;50.942;4.028;2022-08-04T17:38:50;6.78;;;2.67;;
21036;SDS011;10677;50.942;4.028;2022-08-04T17:41:21;7.00;;;2.40;;
21036;SDS011;10677;50.942;4.028;2022-08-04T17:43:49;7.18;;;2.35;;
21036;SDS011;10677;50.942;4.028;2022-08-04T17:49:04;7.38;;;2.00;;
21036;SDS011;10677;50.942;4.028;2022-08-04T17:51:37;5.35;;;2.00;;
21036;SDS011;10677;50.942;4.028;2022-08-04T17:54:06;7.93;;;2.50;;
21036;SDS011;10677;50.942;4.028;2022-08-04T17:59:08;7.53;;;2.15;;
21036;SDS011;10677;50.942;4.028;2022-08-04T18:02:00;7.50;;;2.35;;
21036;SDS011;10677;50.942;4.028;2022-08-04T18:04:36;4.80;;;1.92;;
21036;SDS011;10677;50.942;4.028;2022-08-04T18:09:41;5.43;;;1.70;;
21036;SDS011;10677;50.942;4.028;2022-08-04T18:12:23;5.00;;;1.88;;
21036;SDS011;10677;50.942;4.028;2022-08-04T18:14:52;6.40;;;2.10;;
21036;SDS011;10677;50.942;4.028;2022-08-04T18:20:12;5.97;;;2.25;;
21036;SDS011;10677;50.942;4.028;2022-08-04T18:22:39;4.82;;;2.08;;
21036;SDS011;10677;50.942;4.028;2022-08-04T18:25:06;6.55;;;2.35;;
21036;SDS011;10677;50.942;4.028;2022-08-04T18:27:33;5.43;;;1.83;;
21036;SDS011;10677;50.942;4.028;2022-08-04T18:29:59;4.93;;;2.17;;
21036;SDS011;10677;50.942;4.028;2022-08-04T18:32:26;10.30;;;2.20;;
21036;SDS011;10677;50.942;4.028;2022-08-04T18:34:52;5.35;;;2.30;;
21036;SDS011;10677;50.942;4.028;2022-08-04T18:37:19;7.35;;;1.90;;
21036;SDS011;10677;50.942;4.028;2022-08-04T18:39:45;6.88;;;1.80;;
21036;SDS011;10677;50.942;4.028;2022-08-04T18:42:11;6.25;;;2.05;;
21036;SDS011;10677;50.942;4.028;2022-08-04T18:44:37;6.03;;;2.22;;
21036;SDS011;10677;50.942;4.028;2022-08-04T18:47:03;6.68;;;1.58;;
21036;SDS011;10677;50.942;4.028;2022-08-04T18:49:30;5.50;;;2.08;;
21036;SDS011;10677;50.942;4.028;2022-08-04T18:51:56;5.95;;;2.17;;
21036;SDS011;10677;50.942;4.028;2022-08-04T18:54:22;7.45;;;2.47;;
21036;SDS011;10677;50.942;4.028;2022-08-04T18:56:49;6.22;;;1.60;;
21036;SDS011;10677;50.942;4.028;2022-08-04T18:59:16;6.63;;;1.80;;
21036;SDS011;10677;50.942;4.028;2022-08-04T19:01:42;7.03;;;1.90;;
21036;SDS011;10677;50.942;4.028;2022-08-04T19:04:08;5.55;;;1.85;;
21036;SDS011;10677;50.942;4.028;2022-08-04T19:06:35;6.00;;;1.55;;
21036;SDS011;10677;50.942;4.028;2022-08-04T19:09:01;7.10;;;1.92;;
21036;SDS011;10677;50.942;4.028;2022-08-04T19:11:28;4.55;;;2.05;;
21036;SDS011;10677;50.942;4.028;2022-08-04T19:13:54;5.80;;;2.35;;
21036;SDS011;10677;50.942;4.028;2022-08-04T19:16:19;6.30;;;2.13;;
21036;SDS011;10677;50.942;4.028;2022-08-04T19:18:45;6.90;;;1.58;;
21036;SDS011;10677;50.942;4.028;2022-08-04T19:21:11;6.45;;;1.73;;
21036;SDS011;10677;50.942;4.028;2022-08-04T19:23:37;5.07;;;2.15;;
21036;SDS011;10677;50.942;4.028;2022-08-04T19:26:03;6.55;;;1.65;;
21036;SDS011;10677;50.942;4.028;2022-08-04T19:28:30;4.75;;;1.65;;
21036;SDS011;10677;50.942;4.028;2022-08-04T19:30:56;4.32;;;1.60;;
21036;SDS011;10677;50.942;4.028;2022-08-04T19:33:22;5.85;;;1.58;;
21036;SDS011;10677;50.942;4.028;2022-08-04T19:35:48;5.63;;;1.77;;
21036;SDS011;10677;50.942;4.028;2022-08-04T19:38:14;7.13;;;2.00;;
21036;SDS011;10677;50.942;4.028;2022-08-04T19:40:42;6.35;;;1.92;;
21036;SDS011;10677;50.942;4.028;2022-08-04T19:43:09;6.82;;;2.03;;
21036;SDS011;10677;50.942;4.028;2022-08-04T19:45:35;8.23;;;1.88;;
21036;SDS011;10677;50.942;4.028;2022-08-04T19:48:01;5.10;;;1.88;;
21036;SDS011;10677;50.942;4.028;2022-08-04T19:50:29;4.13;;;1.80;;
21036;SDS011;10677;50.942;4.028;2022-08-04T19:52:55;7.72;;;1.92;;
21036;SDS011;10677;50.942;4.028;2022-08-04T19:55:21;8.63;;;1.77;;
21036;SDS011;10677;50.942;4.028;2022-08-04T19:57:48;5.78;;;1.70;;
21036;SDS011;10677;50.942;4.028;2022-08-04T20:00:15;6.70;;;1.65;;
21036;SDS011;10677;50.942;4.028;2022-08-04T20:02:42;6.40;;;1.90;;
21036;SDS011;10677;50.942;4.028;2022-08-04T20:05:09;5.85;;;1.70;;
21036;SDS011;10677;50.942;4.028;2022-08-04T20:07:35;7.35;;;1.90;;
21036;SDS011;10677;50.942;4.028;2022-08-04T20:10:02;6.43;;;1.58;;
21036;SDS011;10677;50.942;4.028;2022-08-04T20:12:29;5.72;;;1.55;;
21036;SDS011;10677;50.942;4.028;2022-08-04T20:14:55;6.93;;;1.90;;
21036;SDS011;10677;50.942;4.028;2022-08-04T20:17:21;5.70;;;1.88;;
21036;SDS011;10677;50.942;4.028;2022-08-04T20:19:47;6.28;;;1.65;;
21036;SDS011;10677;50.942;4.028;2022-08-04T20:22:13;6.72;;;1.70;;
21036;SDS011;10677;50.942;4.028;2022-08-04T20:24:40;7.93;;;1.77;;
21036;SDS011;10677;50.942;4.028;2022-08-04T20:27:06;4.25;;;1.90;;